sensor_id;sensor_type;location;lat;lon;timestamp;temperature;humidity
39525;DHT22;25203;50.754;6.978;2024-01-15T00:00:46;1.60;99.90
39525;DHT22;25203;50.754;6.978;2024-01-15T00:02:47;1.60;99.90
39525;DHT22;25203;50.754;6.978;2024-01-15T00:04:48;1.60;99.90
39525;DHT22;25203;50.754;6.978;2024-01-15T00:06:49;1.70;99.90
39525;DHT22;25203;50.754;6.978;2024-01-15T00:08:50;1.70;99.90
39525;DHT22;25203;50.754;6.978;2024-01-15T00:10:51;1.60;99.90
39525;DHT22;25203;50.754;6.978;2024-01-15T00:12:51;1.60;99.90
39525;DHT22;25203;50.754;6.978;2024-01-15T00:14:52;1.60;99.90
39525;DHT22;25203;50.754;6.978;2024-01-15T00:16:52;1.60;99.90
39525;DHT22;25203;50.754;6.978;2024-01-15T00:18:55;1.60;99.90
39525;DHT22;25203;50.754;6.978;2024-01-15T00:20:55;1.50;99.90
39525;DHT22;25203;50.754;6.978;2024-01-15T00:22:56;1.40;99.90
39525;DHT22;25203;50.754;6.978;2024-01-15T00:24:57;1.40;99.90
39525;DHT22;25203;50.754;6.978;2024-01-15T00:26:57;1.30;99.90
39525;DHT22;25203;50.754;6.978;2024-01-15T00:28:58;1.20;99.90
39525;DHT22;25203;50.754;6.978;2024-01-15T00:30:59;1.10;99.90
39525;DHT22;25203;50.754;6.978;2024-01-15T00:32:59;1.10;99.90
39525;DHT22;25203;50.754;6.978;2024-01-15T00:35:00;1.10;99.90
39525;DHT22;25203;50.754;6.978;2024-01-15T00:37:00;1.10;99.90
39525;DHT22;25203;50.754;6.978;2024-01-15T00:39:01;1.20;99.90
39525;DHT22;25203;50.754;6.978;2024-01-15T00:41:02;1.20;99.90
39525;DHT22;25203;50.754;6.978;2024-01-15T00:43:03;1.10;99.90
39525;DHT22;25203;50.754;6.978;2024-01-15T00:45:04;1.10;99.90
39525;DHT22;25203;50.754;6.978;2024-01-15T00:47:05;1.10;99.90
39525;DHT22;25203;50.754;6.978;2024-01-15T00:49:06;1.00;99.90
39525;DHT22;25203;50.754;6.978;2024-01-15T00:51:07;1.00;99.90
39525;DHT22;25203;50.754;6.978;2024-01-15T00:53:07;0.90;99.90
39525;DHT22;25203;50.754;6.978;2024-01-15T00:55:08;1.00;99.90
39525;DHT22;25203;50.754;6.978;2024-01-15T00:57:09;0.90;99.90
39525;DHT22;25203;50.754;6.978;2024-01-15T00:59:09;1.00;99.90
39525;DHT22;25203;50.754;6.978;2024-01-15T01:01:10;1.00;99.90
39525;DHT22;25203;50.754;6.978;2024-01-15T01:03:11;1.00;99.90
39525;DHT22;25203;50.754;6.978;2024-01-15T01:05:12;1.00;99.90
39525;DHT22;25203;50.754;6.978;2024-01-15T01:07:12;1.00;99.90
39525;DHT22;25203;50.754;6.978;2024-01-15T01:09:13;1.10;99.90
39525;DHT22;25203;50.754;6.978;2024-01-15T01:11:15;1.20;99.90
39525;DHT22;25203;50.754;6.978;2024-01-15T01:13:15;1.20;99.90
39525;DHT22;25203;50.754;6.978;2024-01-15T01:15:16;1.20;99.90
39525;DHT22;25203;50.754;6.978;2024-01-15T01:17:17;1.20;99.90
39525;DHT22;25203;50.754;6.978;2024-01-15T01:19:17;1.30;99.90
39525;DHT22;25203;50.754;6.978;2024-01-15T01:21:18;1.30;99.90
39525;DHT22;25203;50.754;6.978;2024-01-15T01:23:19;1.30;99.90
39525;DHT22;25203;50.754;6.978;2024-01-15T01:25:19;1.30;99.90
39525;DHT22;25203;50.754;6.978;2024-01-15T01:27:20;1.20;99.90
39525;DHT22;25203;50.754;6.978;2024-01-15T01:29:20;1.20;99.90
39525;DHT22;25203;50.754;6.978;2024-01-15T01:31:21;1.10;99.90
39525;DHT22;25203;50.754;6.978;2024-01-15T01:33:22;1.10;99.90
39525;DHT22;25203;50.754;6.978;2024-01-15T01:35:22;1.00;99.90
39525;DHT22;25203;50.754;6.978;2024-01-15T01:37:23;1.00;99.90
39525;DHT22;25203;50.754;6.978;2024-01-15T01:39:24;1.00;99.90
39525;DHT22;25203;50.754;6.978;2024-01-15T01:41:24;0.90;99.90
39525;DHT22;25203;50.754;6.978;2024-01-15T01:43:25;1.00;99.90
39525;DHT22;25203;50.754;6.978;2024-01-15T01:45:25;1.00;99.90
39525;DHT22;25203;50.754;6.978;2024-01-15T01:47:26;1.00;99.90
39525;DHT22;25203;50.754;6.978;2024-01-15T01:49:27;1.00;99.90
39525;DHT22;25203;50.754;6.978;2024-01-15T01:51:28;1.00;99.90
39525;DHT22;25203;50.754;6.978;2024-01-15T01:53:29;1.10;99.90
39525;DHT22;25203;50.754;6.978;2024-01-15T01:55:32;1.10;99.90
39525;DHT22;25203;50.754;6.978;2024-01-15T01:57:34;1.20;99.90
39525;DHT22;25203;50.754;6.978;2024-01-15T01:59:35;1.20;99.90
39525;DHT22;25203;50.754;6.978;2024-01-15T02:01:36;1.20;99.90
39525;DHT22;25203;50.754;6.978;2024-01-15T02:03:38;1.30;99.90
39525;DHT22;25203;50.754;6.978;2024-01-15T02:05:40;1.30;99.90
39525;DHT22;25203;50.754;6.978;2024-01-15T02:07:41;1.30;99.90
39525;DHT22;25203;50.754;6.978;2024-01-15T02:09:41;1.30;99.90
39525;DHT22;25203;50.754;6.978;2024-01-15T02:11:42;1.30;99.90
39525;DHT22;25203;50.754;6.978;2024-01-15T02:13:43;1.30;99.90
39525;DHT22;25203;50.754;6.978;2024-01-15T02:15:44;1.20;99.90
39525;DHT22;25203;50.754;6.978;2024-01-15T02:17:58;1.20;99.90
39525;DHT22;25203;50.754;6.978;2024-01-15T02:19:58;1.20;99.90
39525;DHT22;25203;50.754;6.978;2024-01-15T02:21:59;1.10;99.90
39525;DHT22;25203;50.754;6.978;2024-01-15T02:24:00;1.10;99.90
39525;DHT22;25203;50.754;6.978;2024-01-15T02:26:01;1.10;99.90
39525;DHT22;25203;50.754;6.978;2024-01-15T02:28:02;1.00;99.90
39525;DHT22;25203;50.754;6.978;2024-01-15T02:30:04;1.00;99.90
39525;DHT22;25203;50.754;6.978;2024-01-15T02:32:07;1.10;99.90
39525;DHT22;25203;50.754;6.978;2024-01-15T02:34:08;1.10;99.90
39525;DHT22;25203;50.754;6.978;2024-01-15T02:36:10;1.10;99.90
39525;DHT22;25203;50.754;6.978;2024-01-15T02:38:10;1.10;99.90
39525;DHT22;25203;50.754;6.978;2024-01-15T02:40:11;1.10;99.90
39525;DHT22;25203;50.754;6.978;2024-01-15T02:42:12;1.10;99.90
39525;DHT22;25203;50.754;6.978;2024-01-15T02:44:12;1.10;99.90
39525;DHT22;25203;50.754;6.978;2024-01-15T02:46:13;1.10;99.90
39525;DHT22;25203;50.754;6.978;2024-01-15T02:48:13;1.10;99.90
39525;DHT22;25203;50.754;6.978;2024-01-15T02:50:14;1.10;99.90
39525;DHT22;25203;50.754;6.978;2024-01-15T02:52:15;1.00;99.90
39525;DHT22;25203;50.754;6.978;2024-01-15T02:54:16;1.00;99.90
39525;DHT22;25203;50.754;6.978;2024-01-15T02:56:16;1.00;99.90
39525;DHT22;25203;50.754;6.978;2024-01-15T02:58:17;1.00;99.90
39525;DHT22;25203;50.754;6.978;2024-01-15T03:00:17;1.10;99.90
39525;DHT22;25203;50.754;6.978;2024-01-15T03:02:18;1.10;99.90
39525;DHT22;25203;50.754;6.978;2024-01-15T03:04:19;1.20;99.90
39525;DHT22;25203;50.754;6.978;2024-01-15T03:06:19;1.10;99.90
39525;DHT22;25203;50.754;6.978;2024-01-15T03:08:20;1.20;99.90
39525;DHT22;25203;50.754;6.978;2024-01-15T03:10:20;1.10;99.90
39525;DHT22;25203;50.754;6.978;2024-01-15T03:12:21;1.10;99.90
39525;DHT22;25203;50.754;6.978;2024-01-15T03:14:21;1.20;99.90
39525;DHT22;25203;50.754;6.978;2024-01-15T03:16:24;1.20;99.90
39525;DHT22;25203;50.754;6.978;2024-01-15T03:18:25;1.20;99.90
39525;DHT22;25203;50.754;6.978;2024-01-15T03:20:26;1.10;99.90
39525;DHT22;25203;50.754;6.978;2024-01-15T03:22:26;1.20;99.90
39525;DHT22;25203;50.754;6.978;2024-01-15T03:24:27;1.10;99.90
39525;DHT22;25203;50.754;6.978;2024-01-15T03:26:27;1.10;99.90
39525;DHT22;25203;50.754;6.978;2024-01-15T03:28:28;1.10;99.90
39525;DHT22;25203;50.754;6.978;2024-01-15T03:30:30;1.10;99.90
39525;DHT22;25203;50.754;6.978;2024-01-15T03:32:31;1.10;99.90
39525;DHT22;25203;50.754;6.978;2024-01-15T03:34:31;1.10;99.90
39525;DHT22;25203;50.754;6.978;2024-01-15T03:36:32;1.10;99.90
39525;DHT22;25203;50.754;6.978;2024-01-15T03:38:33;1.10;99.90
39525;DHT22;25203;50.754;6.978;2024-01-15T03:40:33;1.20;99.90
39525;DHT22;25203;50.754;6.978;2024-01-15T03:42:34;1.20;99.90
39525;DHT22;25203;50.754;6.978;2024-01-15T03:44:34;1.20;99.90
39525;DHT22;25203;50.754;6.978;2024-01-15T03:46:35;1.20;99.90
39525;DHT22;25203;50.754;6.978;2024-01-15T03:48:36;1.10;99.90
39525;DHT22;25203;50.754;6.978;2024-01-15T03:50:37;1.20;99.90
39525;DHT22;25203;50.754;6.978;2024-01-15T03:52:37;1.20;99.90
39525;DHT22;25203;50.754;6.978;2024-01-15T03:54:38;1.20;99.90
39525;DHT22;25203;50.754;6.978;2024-01-15T03:56:39;1.20;99.90
39525;DHT22;25203;50.754;6.978;2024-01-15T03:58:39;1.20;99.90
39525;DHT22;25203;50.754;6.978;2024-01-15T04:00:40;1.20;99.90
39525;DHT22;25203;50.754;6.978;2024-01-15T04:02:41;1.20;99.90
39525;DHT22;25203;50.754;6.978;2024-01-15T04:04:43;1.20;99.90
39525;DHT22;25203;50.754;6.978;2024-01-15T04:06:44;1.20;99.90
39525;DHT22;25203;50.754;6.978;2024-01-15T04:08:44;1.20;99.90
39525;DHT22;25203;50.754;6.978;2024-01-15T04:10:45;1.20;99.90
39525;DHT22;25203;50.754;6.978;2024-01-15T04:12:46;1.20;99.90
39525;DHT22;25203;50.754;6.978;2024-01-15T04:14:46;1.20;99.90
39525;DHT22;25203;50.754;6.978;2024-01-15T04:16:47;1.20;99.90
39525;DHT22;25203;50.754;6.978;2024-01-15T04:18:47;1.20;99.90
39525;DHT22;25203;50.754;6.978;2024-01-15T04:20:48;1.20;99.90
39525;DHT22;25203;50.754;6.978;2024-01-15T04:22:49;1.20;99.90
39525;DHT22;25203;50.754;6.978;2024-01-15T04:24:49;1.20;99.90
39525;DHT22;25203;50.754;6.978;2024-01-15T04:26:50;1.20;99.90
39525;DHT22;25203;50.754;6.978;2024-01-15T04:28:50;1.20;99.90
39525;DHT22;25203;50.754;6.978;2024-01-15T04:30:51;1.20;99.90
39525;DHT22;25203;50.754;6.978;2024-01-15T04:32:52;1.20;99.90
39525;DHT22;25203;50.754;6.978;2024-01-15T04:34:52;1.20;99.90
39525;DHT22;25203;50.754;6.978;2024-01-15T04:36:53;1.10;99.90
39525;DHT22;25203;50.754;6.978;2024-01-15T04:38:53;1.10;99.90
39525;DHT22;25203;50.754;6.978;2024-01-15T04:40:54;1.10;99.90
39525;DHT22;25203;50.754;6.978;2024-01-15T04:42:54;1.10;99.90
39525;DHT22;25203;50.754;6.978;2024-01-15T04:44:55;1.10;99.90
39525;DHT22;25203;50.754;6.978;2024-01-15T04:46:56;1.10;99.90
39525;DHT22;25203;50.754;6.978;2024-01-15T04:48:56;1.10;99.90
39525;DHT22;25203;50.754;6.978;2024-01-15T04:50:57;1.10;99.90
39525;DHT22;25203;50.754;6.978;2024-01-15T04:52:57;1.20;99.90
39525;DHT22;25203;50.754;6.978;2024-01-15T04:54:58;1.20;99.90
39525;DHT22;25203;50.754;6.978;2024-01-15T04:56:58;1.20;99.90
39525;DHT22;25203;50.754;6.978;2024-01-15T04:58:59;1.20;99.90
39525;DHT22;25203;50.754;6.978;2024-01-15T05:01:00;1.20;99.90
39525;DHT22;25203;50.754;6.978;2024-01-15T05:03:00;1.20;99.90
39525;DHT22;25203;50.754;6.978;2024-01-15T05:05:01;1.30;99.90
39525;DHT22;25203;50.754;6.978;2024-01-15T05:07:01;1.30;99.90
39525;DHT22;25203;50.754;6.978;2024-01-15T05:09:02;1.30;99.90
39525;DHT22;25203;50.754;6.978;2024-01-15T05:11:04;1.30;99.90
39525;DHT22;25203;50.754;6.978;2024-01-15T05:13:05;1.30;99.90
39525;DHT22;25203;50.754;6.978;2024-01-15T05:15:05;1.20;99.90
39525;DHT22;25203;50.754;6.978;2024-01-15T05:17:06;1.20;99.90
39525;DHT22;25203;50.754;6.978;2024-01-15T05:19:07;1.20;99.90
39525;DHT22;25203;50.754;6.978;2024-01-15T05:21:09;1.20;99.90
39525;DHT22;25203;50.754;6.978;2024-01-15T05:23:09;1.20;99.90
39525;DHT22;25203;50.754;6.978;2024-01-15T05:25:10;1.30;99.90
39525;DHT22;25203;50.754;6.978;2024-01-15T05:27:10;1.30;99.90
39525;DHT22;25203;50.754;6.978;2024-01-15T05:29:11;1.30;99.90
39525;DHT22;25203;50.754;6.978;2024-01-15T05:31:12;1.30;99.90
39525;DHT22;25203;50.754;6.978;2024-01-15T05:33:12;1.20;99.90
39525;DHT22;25203;50.754;6.978;2024-01-15T05:35:13;1.30;99.90
39525;DHT22;25203;50.754;6.978;2024-01-15T05:37:13;1.20;99.90
39525;DHT22;25203;50.754;6.978;2024-01-15T05:39:14;1.20;99.90
39525;DHT22;25203;50.754;6.978;2024-01-15T05:41:15;1.20;99.90
39525;DHT22;25203;50.754;6.978;2024-01-15T05:43:15;1.30;99.90
39525;DHT22;25203;50.754;6.978;2024-01-15T05:45:16;1.20;99.90
39525;DHT22;25203;50.754;6.978;2024-01-15T05:47:17;1.20;99.90
39525;DHT22;25203;50.754;6.978;2024-01-15T05:49:18;1.20;99.90
39525;DHT22;25203;50.754;6.978;2024-01-15T05:51:18;1.20;99.90
39525;DHT22;25203;50.754;6.978;2024-01-15T05:53:19;1.10;99.90
39525;DHT22;25203;50.754;6.978;2024-01-15T05:55:19;1.20;99.90
39525;DHT22;25203;50.754;6.978;2024-01-15T05:57:20;1.20;99.90
39525;DHT22;25203;50.754;6.978;2024-01-15T05:59:20;1.20;99.90
39525;DHT22;25203;50.754;6.978;2024-01-15T06:01:21;1.20;99.90
39525;DHT22;25203;50.754;6.978;2024-01-15T06:03:22;1.20;99.90
39525;DHT22;25203;50.754;6.978;2024-01-15T06:05:22;1.10;99.90
39525;DHT22;25203;50.754;6.978;2024-01-15T06:07:23;1.10;99.90
39525;DHT22;25203;50.754;6.978;2024-01-15T06:09:24;1.10;99.90
39525;DHT22;25203;50.754;6.978;2024-01-15T06:11:29;1.20;99.90
39525;DHT22;25203;50.754;6.978;2024-01-15T06:13:30;1.10;99.90
39525;DHT22;25203;50.754;6.978;2024-01-15T06:15:31;1.10;99.90
39525;DHT22;25203;50.754;6.978;2024-01-15T06:17:31;1.10;99.90
39525;DHT22;25203;50.754;6.978;2024-01-15T06:19:32;1.10;99.90
39525;DHT22;25203;50.754;6.978;2024-01-15T06:21:33;1.00;99.90
39525;DHT22;25203;50.754;6.978;2024-01-15T06:23:33;1.10;99.90
39525;DHT22;25203;50.754;6.978;2024-01-15T06:25:34;1.10;99.90
39525;DHT22;25203;50.754;6.978;2024-01-15T06:27:34;1.10;99.90
39525;DHT22;25203;50.754;6.978;2024-01-15T06:29:37;1.10;99.90
39525;DHT22;25203;50.754;6.978;2024-01-15T06:31:38;1.10;99.90
39525;DHT22;25203;50.754;6.978;2024-01-15T06:33:39;1.10;99.90
39525;DHT22;25203;50.754;6.978;2024-01-15T06:35:39;1.20;99.90
39525;DHT22;25203;50.754;6.978;2024-01-15T06:37:40;1.20;99.90
39525;DHT22;25203;50.754;6.978;2024-01-15T06:39:41;1.20;99.90
39525;DHT22;25203;50.754;6.978;2024-01-15T06:41:41;1.20;99.90
39525;DHT22;25203;50.754;6.978;2024-01-15T06:43:43;1.20;99.90
39525;DHT22;25203;50.754;6.978;2024-01-15T06:45:44;1.20;99.90
39525;DHT22;25203;50.754;6.978;2024-01-15T06:47:45;1.20;99.90
39525;DHT22;25203;50.754;6.978;2024-01-15T06:49:45;1.20;99.90
39525;DHT22;25203;50.754;6.978;2024-01-15T06:51:46;1.10;99.90
39525;DHT22;25203;50.754;6.978;2024-01-15T06:53:46;1.10;99.90
39525;DHT22;25203;50.754;6.978;2024-01-15T06:55:48;1.00;99.90
39525;DHT22;25203;50.754;6.978;2024-01-15T06:57:49;1.10;99.90
39525;DHT22;25203;50.754;6.978;2024-01-15T06:59:50;1.10;99.90
39525;DHT22;25203;50.754;6.978;2024-01-15T07:01:51;1.10;99.90
39525;DHT22;25203;50.754;6.978;2024-01-15T07:03:51;1.10;99.90
39525;DHT22;25203;50.754;6.978;2024-01-15T07:05:52;1.10;99.90
39525;DHT22;25203;50.754;6.978;2024-01-15T07:07:52;1.10;99.90
39525;DHT22;25203;50.754;6.978;2024-01-15T07:09:53;1.10;99.90
39525;DHT22;25203;50.754;6.978;2024-01-15T07:11:53;1.10;99.90
39525;DHT22;25203;50.754;6.978;2024-01-15T07:13:54;1.10;99.90
39525;DHT22;25203;50.754;6.978;2024-01-15T07:15:55;1.10;99.90
39525;DHT22;25203;50.754;6.978;2024-01-15T07:17:55;1.10;99.90
39525;DHT22;25203;50.754;6.978;2024-01-15T07:19:56;1.10;99.90
39525;DHT22;25203;50.754;6.978;2024-01-15T07:21:57;1.10;99.90
39525;DHT22;25203;50.754;6.978;2024-01-15T07:23:57;1.10;99.90
39525;DHT22;25203;50.754;6.978;2024-01-15T07:25:58;1.20;99.90
39525;DHT22;25203;50.754;6.978;2024-01-15T07:27:58;1.20;99.90
39525;DHT22;25203;50.754;6.978;2024-01-15T07:29:59;1.10;99.90
39525;DHT22;25203;50.754;6.978;2024-01-15T07:31:59;1.20;99.90
39525;DHT22;25203;50.754;6.978;2024-01-15T07:34:00;1.20;99.90
39525;DHT22;25203;50.754;6.978;2024-01-15T07:36:01;1.20;99.90
39525;DHT22;25203;50.754;6.978;2024-01-15T07:38:03;1.20;99.90
39525;DHT22;25203;50.754;6.978;2024-01-15T07:40:04;1.20;99.90
39525;DHT22;25203;50.754;6.978;2024-01-15T07:42:06;1.20;99.90
39525;DHT22;25203;50.754;6.978;2024-01-15T07:44:07;1.20;99.90
39525;DHT22;25203;50.754;6.978;2024-01-15T07:46:08;1.20;99.90
39525;DHT22;25203;50.754;6.978;2024-01-15T07:48:08;1.20;99.90
39525;DHT22;25203;50.754;6.978;2024-01-15T07:50:10;1.20;99.90
39525;DHT22;25203;50.754;6.978;2024-01-15T07:52:11;1.20;99.90
39525;DHT22;25203;50.754;6.978;2024-01-15T07:54:13;1.20;99.90
39525;DHT22;25203;50.754;6.978;2024-01-15T07:56:14;1.20;99.90
39525;DHT22;25203;50.754;6.978;2024-01-15T07:58:14;1.20;99.90
39525;DHT22;25203;50.754;6.978;2024-01-15T08:00:15;1.20;99.90
39525;DHT22;25203;50.754;6.978;2024-01-15T08:02:16;1.20;99.90
39525;DHT22;25203;50.754;6.978;2024-01-15T08:04:16;1.20;99.90
39525;DHT22;25203;50.754;6.978;2024-01-15T08:06:17;1.30;99.90
39525;DHT22;25203;50.754;6.978;2024-01-15T08:08:18;1.30;99.90
39525;DHT22;25203;50.754;6.978;2024-01-15T08:10:19;1.40;99.90
39525;DHT22;25203;50.754;6.978;2024-01-15T08:12:19;1.40;99.90
39525;DHT22;25203;50.754;6.978;2024-01-15T08:14:20;1.40;99.90
39525;DHT22;25203;50.754;6.978;2024-01-15T08:16:20;1.50;99.90
39525;DHT22;25203;50.754;6.978;2024-01-15T08:18:21;1.50;99.90
39525;DHT22;25203;50.754;6.978;2024-01-15T08:20:22;1.50;99.90
39525;DHT22;25203;50.754;6.978;2024-01-15T08:22:25;1.50;99.90
39525;DHT22;25203;50.754;6.978;2024-01-15T08:24:26;1.50;99.90
39525;DHT22;25203;50.754;6.978;2024-01-15T08:26:27;1.50;99.90
39525;DHT22;25203;50.754;6.978;2024-01-15T08:28:27;1.60;99.90
39525;DHT22;25203;50.754;6.978;2024-01-15T08:30:28;1.60;99.90
39525;DHT22;25203;50.754;6.978;2024-01-15T08:32:28;1.60;99.90
39525;DHT22;25203;50.754;6.978;2024-01-15T08:34:30;1.60;99.90
39525;DHT22;25203;50.754;6.978;2024-01-15T08:36:31;1.70;99.90
39525;DHT22;25203;50.754;6.978;2024-01-15T08:38:33;1.70;99.90
39525;DHT22;25203;50.754;6.978;2024-01-15T08:40:33;1.70;99.90
39525;DHT22;25203;50.754;6.978;2024-01-15T08:42:34;1.80;99.90
39525;DHT22;25203;50.754;6.978;2024-01-15T08:44:34;1.80;99.90
39525;DHT22;25203;50.754;6.978;2024-01-15T08:46:35;1.80;99.90
39525;DHT22;25203;50.754;6.978;2024-01-15T08:48:36;1.80;99.90
39525;DHT22;25203;50.754;6.978;2024-01-15T08:50:37;1.80;99.90
39525;DHT22;25203;50.754;6.978;2024-01-15T08:52:37;1.80;99.90
39525;DHT22;25203;50.754;6.978;2024-01-15T08:54:38;1.80;99.90
39525;DHT22;25203;50.754;6.978;2024-01-15T08:56:38;1.80;99.90
39525;DHT22;25203;50.754;6.978;2024-01-15T08:58:40;1.80;99.90
39525;DHT22;25203;50.754;6.978;2024-01-15T09:00:41;1.80;99.90
39525;DHT22;25203;50.754;6.978;2024-01-15T09:02:42;1.80;99.90
39525;DHT22;25203;50.754;6.978;2024-01-15T09:04:42;1.90;99.90
39525;DHT22;25203;50.754;6.978;2024-01-15T09:06:46;1.90;99.90
39525;DHT22;25203;50.754;6.978;2024-01-15T09:08:50;1.90;99.90
39525;DHT22;25203;50.754;6.978;2024-01-15T09:10:50;2.00;99.90
39525;DHT22;25203;50.754;6.978;2024-01-15T09:12:51;2.00;99.90
39525;DHT22;25203;50.754;6.978;2024-01-15T09:14:52;2.00;99.90
39525;DHT22;25203;50.754;6.978;2024-01-15T09:16:54;2.00;99.90
39525;DHT22;25203;50.754;6.978;2024-01-15T09:18:54;2.00;99.90
39525;DHT22;25203;50.754;6.978;2024-01-15T09:20:57;2.00;99.90
39525;DHT22;25203;50.754;6.978;2024-01-15T09:22:58;2.00;99.90
39525;DHT22;25203;50.754;6.978;2024-01-15T09:24:59;2.00;99.90
39525;DHT22;25203;50.754;6.978;2024-01-15T09:26:59;2.00;99.90
39525;DHT22;25203;50.754;6.978;2024-01-15T09:29:00;2.00;99.90
39525;DHT22;25203;50.754;6.978;2024-01-15T09:31:03;2.00;99.90
39525;DHT22;25203;50.754;6.978;2024-01-15T09:33:04;2.00;99.90
39525;DHT22;25203;50.754;6.978;2024-01-15T09:35:05;1.90;99.90
39525;DHT22;25203;50.754;6.978;2024-01-15T09:37:06;1.90;99.90
39525;DHT22;25203;50.754;6.978;2024-01-15T09:39:07;1.80;99.90
39525;DHT22;25203;50.754;6.978;2024-01-15T09:41:08;1.70;99.90
39525;DHT22;25203;50.754;6.978;2024-01-15T09:43:10;1.60;99.90
39525;DHT22;25203;50.754;6.978;2024-01-15T09:45:11;1.60;99.90
39525;DHT22;25203;50.754;6.978;2024-01-15T09:47:12;1.50;99.90
39525;DHT22;25203;50.754;6.978;2024-01-15T09:49:13;1.50;99.90
39525;DHT22;25203;50.754;6.978;2024-01-15T09:51:14;1.40;99.90
39525;DHT22;25203;50.754;6.978;2024-01-15T09:53:15;1.40;99.90
39525;DHT22;25203;50.754;6.978;2024-01-15T09:55:17;1.30;99.90
39525;DHT22;25203;50.754;6.978;2024-01-15T09:57:18;1.30;99.90
39525;DHT22;25203;50.754;6.978;2024-01-15T09:59:19;1.20;99.90
39525;DHT22;25203;50.754;6.978;2024-01-15T10:01:23;1.30;99.90
39525;DHT22;25203;50.754;6.978;2024-01-15T10:03:23;1.20;99.90
39525;DHT22;25203;50.754;6.978;2024-01-15T10:05:24;1.20;99.90
39525;DHT22;25203;50.754;6.978;2024-01-15T10:07:25;1.20;99.90
39525;DHT22;25203;50.754;6.978;2024-01-15T10:09:26;1.10;99.90
39525;DHT22;25203;50.754;6.978;2024-01-15T10:11:27;1.10;99.90
39525;DHT22;25203;50.754;6.978;2024-01-15T10:13:30;1.10;99.90
39525;DHT22;25203;50.754;6.978;2024-01-15T10:15:34;1.10;99.90
39525;DHT22;25203;50.754;6.978;2024-01-15T10:17:38;1.10;99.90
39525;DHT22;25203;50.754;6.978;2024-01-15T10:19:39;1.20;99.90
39525;DHT22;25203;50.754;6.978;2024-01-15T10:21:41;1.20;99.90
39525;DHT22;25203;50.754;6.978;2024-01-15T10:23:42;1.20;99.90
39525;DHT22;25203;50.754;6.978;2024-01-15T10:25:42;1.20;99.90
39525;DHT22;25203;50.754;6.978;2024-01-15T10:27:43;1.20;99.90
39525;DHT22;25203;50.754;6.978;2024-01-15T10:29:45;1.30;99.90
39525;DHT22;25203;50.754;6.978;2024-01-15T10:31:46;1.20;99.90
39525;DHT22;25203;50.754;6.978;2024-01-15T10:33:50;1.20;99.90
39525;DHT22;25203;50.754;6.978;2024-01-15T10:35:53;1.20;99.90
39525;DHT22;25203;50.754;6.978;2024-01-15T10:37:53;1.20;99.90
39525;DHT22;25203;50.754;6.978;2024-01-15T10:39:54;1.10;99.90
39525;DHT22;25203;50.754;6.978;2024-01-15T10:41:55;1.10;99.90
39525;DHT22;25203;50.754;6.978;2024-01-15T10:43:56;1.10;99.90
39525;DHT22;25203;50.754;6.978;2024-01-15T10:45:57;1.20;99.90
39525;DHT22;25203;50.754;6.978;2024-01-15T10:47:58;1.20;99.90
39525;DHT22;25203;50.754;6.978;2024-01-15T10:49:59;1.20;99.90
39525;DHT22;25203;50.754;6.978;2024-01-15T10:52:01;1.20;99.90
39525;DHT22;25203;50.754;6.978;2024-01-15T10:54:03;1.20;99.90
39525;DHT22;25203;50.754;6.978;2024-01-15T10:56:05;1.20;99.90
39525;DHT22;25203;50.754;6.978;2024-01-15T10:58:07;1.10;99.90
39525;DHT22;25203;50.754;6.978;2024-01-15T11:00:08;1.10;99.90
39525;DHT22;25203;50.754;6.978;2024-01-15T11:02:15;1.10;99.90
39525;DHT22;25203;50.754;6.978;2024-01-15T11:04:16;1.10;99.90
39525;DHT22;25203;50.754;6.978;2024-01-15T11:06:18;1.00;99.90
39525;DHT22;25203;50.754;6.978;2024-01-15T11:08:21;1.00;99.90
39525;DHT22;25203;50.754;6.978;2024-01-15T11:10:41;0.90;99.90
39525;DHT22;25203;50.754;6.978;2024-01-15T11:12:42;0.90;99.90
39525;DHT22;25203;50.754;6.978;2024-01-15T11:14:48;0.90;99.90
39525;DHT22;25203;50.754;6.978;2024-01-15T11:16:58;0.90;99.90
39525;DHT22;25203;50.754;6.978;2024-01-15T11:19:02;0.90;99.90
39525;DHT22;25203;50.754;6.978;2024-01-15T11:23:49;0.90;99.90
39525;DHT22;25203;50.754;6.978;2024-01-15T11:25:49;0.90;99.90
39525;DHT22;25203;50.754;6.978;2024-01-15T11:27:51;0.90;99.90
39525;DHT22;25203;50.754;6.978;2024-01-15T11:30:07;0.90;99.90
39525;DHT22;25203;50.754;6.978;2024-01-15T11:32:09;0.90;99.90
39525;DHT22;25203;50.754;6.978;2024-01-15T11:34:10;0.90;99.90
39525;DHT22;25203;50.754;6.978;2024-01-15T11:36:12;0.90;99.90
39525;DHT22;25203;50.754;6.978;2024-01-15T11:38:26;0.90;99.90
39525;DHT22;25203;50.754;6.978;2024-01-15T11:42:36;0.90;99.90
39525;DHT22;25203;50.754;6.978;2024-01-15T11:44:40;0.90;99.90
39525;DHT22;25203;50.754;6.978;2024-01-15T11:46:47;0.90;99.90
39525;DHT22;25203;50.754;6.978;2024-01-15T11:49:03;0.90;99.90
39525;DHT22;25203;50.754;6.978;2024-01-15T11:51:05;1.00;99.90
39525;DHT22;25203;50.754;6.978;2024-01-15T11:53:16;1.00;99.90
39525;DHT22;25203;50.754;6.978;2024-01-15T11:55:22;1.00;99.90
39525;DHT22;25203;50.754;6.978;2024-01-15T11:59:44;1.10;99.90
39525;DHT22;25203;50.754;6.978;2024-01-15T12:01:45;1.20;99.90
39525;DHT22;25203;50.754;6.978;2024-01-15T12:03:47;1.20;99.90
39525;DHT22;25203;50.754;6.978;2024-01-15T12:05:48;1.20;99.90
39525;DHT22;25203;50.754;6.978;2024-01-15T12:07:49;1.20;99.90
39525;DHT22;25203;50.754;6.978;2024-01-15T12:09:50;1.20;99.90
39525;DHT22;25203;50.754;6.978;2024-01-15T12:11:57;1.20;99.90
39525;DHT22;25203;50.754;6.978;2024-01-15T12:14:00;1.20;99.90
39525;DHT22;25203;50.754;6.978;2024-01-15T12:16:01;1.20;99.90
39525;DHT22;25203;50.754;6.978;2024-01-15T12:18:03;1.20;99.90
39525;DHT22;25203;50.754;6.978;2024-01-15T12:20:07;1.20;99.90
39525;DHT22;25203;50.754;6.978;2024-01-15T12:22:08;1.20;99.90
39525;DHT22;25203;50.754;6.978;2024-01-15T12:24:10;1.30;99.90
39525;DHT22;25203;50.754;6.978;2024-01-15T12:26:10;1.20;99.90
39525;DHT22;25203;50.754;6.978;2024-01-15T12:28:11;1.30;99.90
39525;DHT22;25203;50.754;6.978;2024-01-15T12:30:13;1.30;99.90
39525;DHT22;25203;50.754;6.978;2024-01-15T12:32:14;1.30;99.90
39525;DHT22;25203;50.754;6.978;2024-01-15T12:34:14;1.30;99.90
39525;DHT22;25203;50.754;6.978;2024-01-15T12:36:20;1.40;99.90
39525;DHT22;25203;50.754;6.978;2024-01-15T12:38:21;1.40;99.90
39525;DHT22;25203;50.754;6.978;2024-01-15T12:40:23;1.40;99.90
39525;DHT22;25203;50.754;6.978;2024-01-15T12:42:23;1.40;99.90
39525;DHT22;25203;50.754;6.978;2024-01-15T12:44:24;1.40;99.90
39525;DHT22;25203;50.754;6.978;2024-01-15T12:46:25;1.60;99.90
39525;DHT22;25203;50.754;6.978;2024-01-15T12:48:25;1.70;99.90
39525;DHT22;25203;50.754;6.978;2024-01-15T12:50:26;1.80;99.90
39525;DHT22;25203;50.754;6.978;2024-01-15T12:52:30;1.80;99.90
39525;DHT22;25203;50.754;6.978;2024-01-15T12:54:31;1.80;99.90
39525;DHT22;25203;50.754;6.978;2024-01-15T12:56:31;1.70;99.90
39525;DHT22;25203;50.754;6.978;2024-01-15T12:58:32;1.70;99.90
39525;DHT22;25203;50.754;6.978;2024-01-15T13:00:32;1.70;99.90
39525;DHT22;25203;50.754;6.978;2024-01-15T13:02:34;1.70;99.90
39525;DHT22;25203;50.754;6.978;2024-01-15T13:04:34;1.70;99.90